createdAt,value
2022-11-27T00:03:41.403Z,11.60
2022-11-27T00:06:11.577Z,11.95
2022-11-27T00:08:38.385Z,14.43
2022-11-27T00:11:13.912Z,11.05
2022-11-27T00:13:41.369Z,11.07
2022-11-27T00:16:08.825Z,11.38
2022-11-27T00:18:36.437Z,12.02
2022-11-27T00:21:05.027Z,12.18
2022-11-27T00:23:33.059Z,9.63
2022-11-27T00:25:59.920Z,11.65
2022-11-27T00:28:26.746Z,10.55
2022-11-27T00:30:53.488Z,11.20
2022-11-27T00:33:20.369Z,10.40
2022-11-27T00:35:47.143Z,9.70
2022-11-27T00:38:13.887Z,10.48
2022-11-27T00:40:40.608Z,9.05
2022-11-27T00:43:07.326Z,10.85
2022-11-27T00:45:34.148Z,8.38
2022-11-27T00:48:01.073Z,11.10
2022-11-27T00:50:31.613Z,10.32
2022-11-27T00:52:59.415Z,10.07
2022-11-27T00:55:26.344Z,7.68
2022-11-27T00:57:53.180Z,8.68
2022-11-27T01:00:20.254Z,8.00
2022-11-27T01:05:13.832Z,8.63
2022-11-27T01:07:40.739Z,8.15
2022-11-27T01:10:08.258Z,11.18
2022-11-27T01:12:35.120Z,9.00
2022-11-27T01:15:01.923Z,9.90
2022-11-27T01:17:29.323Z,10.32
2022-11-27T01:19:56.070Z,8.82
2022-11-27T01:22:23.005Z,9.15
2022-11-27T01:24:49.778Z,8.55
2022-11-27T01:27:16.500Z,9.82
2022-11-27T01:29:43.832Z,9.90
2022-11-27T01:32:10.559Z,8.65
2022-11-27T01:34:37.383Z,7.78
2022-11-27T01:37:04.213Z,9.63
2022-11-27T01:39:30.935Z,7.85
2022-11-27T01:41:57.716Z,8.13
2022-11-27T01:44:24.473Z,9.55
2022-11-27T01:46:57.405Z,7.72
2022-11-27T01:49:49.195Z,11.50
2022-11-27T01:52:38.427Z,8.77
2022-11-27T01:55:12.605Z,9.43
2022-11-27T01:57:47.371Z,9.38
2022-11-27T02:00:15.887Z,10.38
2022-11-27T02:02:44.177Z,8.38
2022-11-27T02:05:15.004Z,7.93
2022-11-27T02:07:41.842Z,8.95
2022-11-27T02:10:09.163Z,8.65
2022-11-27T02:12:38.698Z,7.65
2022-11-27T02:15:14.468Z,8.68
2022-11-27T02:18:07.226Z,9.00
2022-11-27T02:21:03.000Z,9.00
2022-11-27T02:24:01.354Z,11.23
2022-11-27T02:27:00.499Z,7.22
2022-11-27T02:29:32.035Z,8.43
2022-11-27T02:32:57.311Z,7.65
2022-11-27T02:35:33.658Z,8.15
2022-11-27T02:38:07.342Z,8.13
2022-11-27T02:40:51.090Z,8.75
2022-11-27T02:43:24.963Z,5.20
2022-11-27T02:45:52.730Z,7.32
2022-11-27T02:48:23.323Z,6.68
2022-11-27T02:50:51.999Z,6.85
2022-11-27T02:53:23.266Z,6.10
2022-11-27T02:55:52.220Z,5.82
2022-11-27T02:58:23.560Z,7.50
2022-11-27T03:00:50.884Z,6.95
2022-11-27T03:03:22.270Z,6.68
2022-11-27T03:05:52.184Z,6.00
2022-11-27T03:08:35.718Z,5.75
2022-11-27T03:11:14.591Z,6.07
2022-11-27T03:13:45.762Z,6.15
2022-11-27T03:16:29.074Z,7.05
2022-11-27T03:19:20.858Z,6.47
2022-11-27T03:21:57.006Z,7.25
2022-11-27T03:24:24.577Z,5.80
2022-11-27T03:26:52.083Z,5.47
2022-11-27T03:29:27.451Z,5.70
2022-11-27T03:31:55.301Z,6.35
2022-11-27T03:34:22.152Z,5.90
2022-11-27T03:36:48.826Z,5.78
2022-11-27T03:39:16.055Z,9.43
2022-11-27T03:42:25.765Z,5.65
2022-11-27T03:45:04.624Z,6.55
2022-11-27T03:47:50.332Z,6.13
2022-11-27T03:50:53.210Z,8.15
2022-11-27T03:53:33.374Z,5.22
2022-11-27T03:56:26.138Z,7.50
2022-11-27T03:59:39.015Z,5.32
2022-11-27T04:02:05.884Z,6.63
2022-11-27T04:04:32.700Z,6.18
2022-11-27T04:06:59.483Z,5.68
2022-11-27T04:09:26.261Z,7.15
2022-11-27T04:11:53.063Z,4.75
2022-11-27T04:14:19.734Z,5.15
2022-11-27T04:16:46.570Z,6.57
2022-11-27T04:19:13.313Z,6.82
2022-11-27T04:21:40.060Z,4.65
2022-11-27T04:24:07.083Z,7.32
2022-11-27T04:26:33.766Z,6.13
2022-11-27T04:29:00.560Z,5.65
2022-11-27T04:31:27.375Z,7.20
2022-11-27T04:33:54.232Z,5.45
2022-11-27T04:36:21.001Z,7.53
2022-11-27T04:38:47.777Z,6.68
2022-11-27T04:41:14.495Z,5.35
2022-11-27T04:43:41.255Z,6.13
2022-11-27T04:46:08.083Z,5.40
2022-11-27T04:48:34.824Z,5.82
2022-11-27T04:51:01.562Z,5.20
2022-11-27T04:53:28.256Z,6.07
2022-11-27T04:55:54.989Z,5.40
2022-11-27T04:58:21.803Z,5.57
2022-11-27T05:00:48.632Z,5.35
2022-11-27T05:03:15.575Z,3.88
2022-11-27T05:05:42.376Z,6.03
2022-11-27T05:08:09.184Z,5.30
2022-11-27T05:10:36.024Z,5.78
2022-11-27T05:13:02.821Z,5.63
2022-11-27T05:15:29.575Z,6.50
2022-11-27T05:17:56.349Z,5.22
2022-11-27T05:20:23.151Z,6.55
2022-11-27T05:22:49.935Z,4.40
2022-11-27T05:25:16.803Z,5.00
2022-11-27T05:27:43.603Z,4.15
2022-11-27T05:30:10.561Z,7.43
2022-11-27T05:32:37.591Z,6.00
2022-11-27T05:35:04.572Z,4.25
2022-11-27T05:37:31.347Z,5.22
2022-11-27T05:39:58.064Z,4.18
2022-11-27T05:42:24.840Z,5.07
2022-11-27T05:44:56.715Z,5.72
2022-11-27T05:47:25.140Z,5.05
2022-11-27T05:52:18.605Z,5.05
2022-11-27T05:54:45.487Z,6.35
2022-11-27T05:57:12.322Z,4.20
2022-11-27T05:59:39.148Z,4.00
2022-11-27T06:02:06.040Z,5.90
2022-11-27T06:04:34.729Z,4.57
2022-11-27T06:07:01.525Z,4.25
2022-11-27T06:09:28.352Z,3.83
2022-11-27T06:11:55.207Z,4.05
2022-11-27T06:14:22.074Z,5.20
2022-11-27T06:16:48.917Z,5.07
2022-11-27T06:19:15.793Z,6.10
2022-11-27T06:21:42.729Z,4.32
2022-11-27T06:24:10.771Z,5.05
2022-11-27T06:26:37.713Z,4.20
2022-11-27T06:29:04.539Z,4.13
2022-11-27T06:31:32.818Z,4.70
2022-11-27T06:34:00.351Z,5.50
2022-11-27T06:36:31.121Z,8.02
2022-11-27T06:38:58.081Z,5.18
2022-11-27T06:41:27.026Z,5.28
2022-11-27T06:43:54.749Z,4.30
2022-11-27T06:46:23.057Z,5.68
2022-11-27T06:48:51.944Z,4.20
2022-11-27T06:51:22.006Z,5.20
2022-11-27T06:53:49.896Z,4.88
2022-11-27T06:56:19.543Z,6.32
2022-11-27T06:58:46.584Z,5.45
2022-11-27T07:01:15.697Z,5.43
2022-11-27T07:03:42.717Z,6.32
2022-11-27T07:06:16.095Z,5.15
2022-11-27T07:08:43.281Z,5.47
2022-11-27T07:13:46.356Z,4.20
2022-11-27T07:16:13.864Z,5.53
2022-11-27T07:18:43.473Z,6.15
2022-11-27T07:21:10.611Z,5.38
2022-11-27T07:26:09.621Z,5.47
2022-11-27T07:28:36.778Z,4.80
2022-11-27T07:33:30.717Z,4.85
2022-11-27T07:36:03.623Z,6.68
2022-11-27T07:38:30.483Z,5.38
2022-11-27T07:41:01.145Z,5.80
2022-11-27T07:43:28.880Z,4.72
2022-11-27T07:45:56.102Z,6.85
2022-11-27T07:48:23.074Z,4.72
2022-11-27T07:50:50.065Z,9.40
2022-11-27T07:53:17.133Z,10.18
2022-11-27T07:55:43.909Z,5.55
2022-11-27T07:58:10.624Z,5.28
2022-11-27T08:00:37.540Z,11.43
2022-11-27T08:03:04.783Z,4.95
2022-11-27T08:08:01.518Z,5.43
2022-11-27T08:10:28.415Z,5.35
2022-11-27T08:12:55.246Z,5.93
2022-11-27T08:15:22.029Z,8.57
2022-11-27T08:17:48.834Z,10.02
2022-11-27T08:20:15.784Z,8.40
2022-11-27T08:22:42.682Z,7.30
2022-11-27T08:25:09.694Z,6.75
2022-11-27T08:27:36.528Z,6.45
2022-11-27T08:30:05.011Z,5.85
2022-11-27T08:32:32.032Z,9.65
2022-11-27T08:37:25.553Z,7.82
2022-11-27T08:39:52.340Z,7.80
2022-11-27T08:42:19.143Z,9.13
2022-11-27T08:44:45.901Z,7.63
2022-11-27T08:47:15.463Z,8.02
2022-11-27T08:49:46.248Z,8.13
2022-11-27T08:52:13.536Z,8.27
2022-11-27T08:57:07.298Z,7.35
2022-11-27T08:59:34.164Z,8.27
2022-11-27T09:02:01.065Z,8.35
2022-11-27T09:04:29.193Z,8.23
2022-11-27T09:07:00.385Z,9.88
2022-11-27T09:09:27.761Z,10.85
2022-11-27T09:11:55.223Z,14.10
2022-11-27T09:14:21.954Z,11.80
2022-11-27T09:16:48.809Z,14.30
2022-11-27T09:19:15.760Z,13.55
2022-11-27T09:21:42.510Z,15.27
2022-11-27T09:24:09.895Z,11.57
2022-11-27T09:26:36.593Z,11.27
2022-11-27T09:29:04.009Z,12.57
2022-11-27T09:31:30.941Z,9.93
2022-11-27T09:36:26.257Z,12.32
2022-11-27T09:38:53.639Z,11.73
2022-11-27T09:41:36.638Z,12.02
2022-11-27T09:44:14.810Z,12.30
2022-11-27T09:46:42.734Z,13.30
2022-11-27T09:49:15.670Z,11.80
2022-11-27T09:51:51.883Z,12.32
2022-11-27T09:54:27.234Z,12.65
2022-11-27T09:56:56.126Z,10.93
2022-11-27T09:59:29.569Z,8.90
2022-11-27T10:01:56.986Z,9.90
2022-11-27T10:04:25.159Z,9.00
2022-11-27T10:07:09.791Z,8.77
2022-11-27T10:10:04.283Z,9.48
2022-11-27T10:12:56.040Z,6.47
2022-11-27T10:15:40.964Z,8.05
2022-11-27T10:18:20.477Z,12.50
2022-11-27T10:21:06.539Z,7.50
2022-11-27T10:23:58.613Z,6.07
2022-11-27T10:26:46.623Z,8.40
2022-11-27T10:29:47.357Z,6.47
2022-11-27T10:32:53.498Z,6.68
2022-11-27T10:35:16.721Z,7.70
2022-11-27T10:38:06.562Z,6.97
2022-11-27T10:40:48.984Z,6.05
2022-11-27T10:43:20.382Z,4.93
2022-11-27T10:46:12.817Z,7.10
2022-11-27T10:48:39.764Z,6.00
2022-11-27T10:53:42.913Z,6.70
2022-11-27T10:56:12.539Z,7.80
2022-11-27T10:59:02.893Z,6.43
2022-11-27T11:01:43.540Z,8.45
2022-11-27T11:04:36.546Z,7.25
2022-11-27T11:07:01.753Z,6.32
2022-11-27T11:09:34.581Z,7.07
2022-11-27T11:12:18.499Z,6.53
2022-11-27T11:15:01.801Z,7.57
2022-11-27T11:17:35.205Z,7.78
2022-11-27T11:20:22.866Z,6.78
2022-11-27T11:22:50.768Z,8.07
2022-11-27T11:25:20.987Z,6.35
2022-11-27T11:27:49.643Z,7.65
2022-11-27T11:30:26.359Z,4.88
2022-11-27T11:33:01.592Z,7.07
2022-11-27T11:35:37.069Z,5.63
2022-11-27T11:38:06.139Z,5.07
2022-11-27T11:40:37.651Z,7.90
2022-11-27T11:43:10.108Z,4.95
2022-11-27T11:45:46.006Z,5.63
2022-11-27T11:48:27.065Z,6.05
2022-11-27T11:51:35.269Z,6.22
2022-11-27T11:54:30.320Z,7.13
2022-11-27T11:57:02.078Z,5.70
2022-11-27T11:59:52.050Z,5.95
2022-11-27T12:02:43.532Z,5.88
2022-11-27T12:05:30.079Z,6.63
2022-11-27T12:08:09.277Z,5.20
2022-11-27T12:10:48.858Z,5.15
2022-11-27T12:16:00.619Z,6.53
2022-11-27T12:19:08.410Z,7.05
2022-11-27T12:22:08.125Z,6.20
2022-11-27T12:24:43.294Z,6.35
2022-11-27T12:27:40.863Z,5.75
2022-11-27T12:30:21.127Z,6.15
2022-11-27T12:33:27.064Z,7.53
2022-11-27T12:36:23.610Z,6.85
2022-11-27T12:39:00.976Z,6.47
2022-11-27T12:41:33.610Z,6.85
2022-11-27T12:44:00.477Z,6.88
2022-11-27T12:46:51.832Z,4.82
2022-11-27T12:49:47.709Z,5.97
2022-11-27T12:52:22.448Z,5.47
2022-11-27T12:55:30.362Z,6.55
2022-11-27T12:58:03.625Z,6.35
2022-11-27T13:03:27.943Z,4.93
2022-11-27T13:06:19.796Z,7.68
2022-11-27T13:09:02.026Z,9.43
2022-11-27T13:11:34.296Z,7.35
2022-11-27T13:14:12.582Z,6.05
2022-11-27T13:16:46.792Z,6.15
2022-11-27T13:19:23.867Z,6.93
2022-11-27T13:21:54.029Z,6.68
2022-11-27T13:24:22.066Z,6.93
2022-11-27T13:27:02.344Z,5.68
2022-11-27T13:29:43.711Z,7.72
2022-11-27T13:32:20.094Z,5.15
2022-11-27T13:34:47.869Z,6.40
2022-11-27T13:37:34.853Z,5.68
2022-11-27T13:40:04.126Z,5.65
2022-11-27T13:42:34.089Z,6.50
2022-11-27T13:45:11.406Z,6.75
2022-11-27T13:47:42.172Z,7.47
2022-11-27T13:50:18.093Z,6.43
2022-11-27T13:53:14.172Z,6.13
2022-11-27T13:55:53.433Z,7.43
2022-11-27T13:58:35.902Z,6.40
2022-11-27T14:01:20.807Z,5.88
2022-11-27T14:03:48.352Z,7.00
2022-11-27T14:06:19.062Z,7.35
2022-11-27T14:09:06.612Z,6.97
2022-11-27T14:11:48.079Z,6.82
2022-11-27T14:14:22.316Z,6.40
2022-11-27T14:17:08.365Z,6.60
2022-11-27T14:19:43.486Z,6.70
2022-11-27T14:22:30.684Z,6.53
2022-11-27T14:24:57.450Z,7.40
2022-11-27T14:27:26.843Z,6.80
2022-11-27T14:29:53.655Z,7.15
2022-11-27T14:34:48.866Z,5.95
2022-11-27T14:37:27.145Z,5.90
2022-11-27T14:39:54.790Z,6.85
2022-11-27T14:42:30.626Z,8.35
2022-11-27T14:45:08.270Z,7.28
2022-11-27T14:47:35.927Z,6.80
2022-11-27T14:50:04.017Z,7.10
2022-11-27T14:52:31.518Z,8.25
2022-11-27T14:55:00.663Z,6.82
2022-11-27T14:57:29.411Z,6.05
2022-11-27T15:00:27.232Z,5.82
2022-11-27T15:02:54.483Z,7.03
2022-11-27T15:05:27.168Z,8.32
2022-11-27T15:07:57.537Z,7.63
2022-11-27T15:10:30.947Z,9.10
2022-11-27T15:12:59.585Z,8.32
2022-11-27T15:15:29.990Z,8.13
2022-11-27T15:17:59.266Z,7.03
2022-11-27T15:20:42.451Z,7.35
2022-11-27T15:23:21.709Z,7.90
2022-11-27T15:25:59.924Z,10.25
2022-11-27T15:28:39.565Z,10.63
2022-11-27T15:33:56.433Z,14.32
2022-11-27T15:36:23.585Z,8.23
2022-11-27T15:38:51.208Z,8.05
2022-11-27T15:41:30.207Z,9.40
2022-11-27T15:43:57.205Z,9.27
2022-11-27T15:46:27.063Z,9.30
2022-11-27T15:48:53.937Z,9.20
2022-11-27T15:53:48.625Z,8.68
2022-11-27T15:56:16.865Z,8.32
2022-11-27T15:58:44.313Z,8.65
2022-11-27T16:01:12.828Z,8.95
2022-11-27T16:03:40.543Z,7.30
2022-11-27T16:06:08.739Z,9.32
2022-11-27T16:08:36.046Z,9.93
2022-11-27T16:11:09.010Z,13.77
2022-11-27T16:13:35.790Z,10.15
2022-11-27T16:16:08.069Z,8.18
2022-11-27T16:18:35.096Z,8.73
2022-11-27T16:21:05.959Z,9.82
2022-11-27T16:23:32.932Z,10.32
2022-11-27T16:26:00.453Z,8.27
2022-11-27T16:28:28.376Z,11.77
2022-11-27T16:31:00.622Z,10.57
2022-11-27T16:33:29.250Z,12.13
2022-11-27T16:35:56.642Z,13.52
2022-11-27T16:38:23.448Z,8.30
2022-11-27T16:40:50.384Z,9.15
2022-11-27T16:45:44.052Z,11.20
2022-11-27T16:48:10.792Z,11.88
2022-11-27T16:50:37.635Z,10.95
2022-11-27T16:53:04.495Z,9.63
2022-11-27T16:55:31.843Z,11.23
2022-11-27T16:57:58.624Z,13.68
2022-11-27T17:00:25.371Z,11.18
2022-11-27T17:02:52.069Z,15.13
2022-11-27T17:05:18.943Z,13.98
2022-11-27T17:10:12.586Z,14.20
2022-11-27T17:12:39.375Z,13.95
2022-11-27T17:15:06.556Z,15.50
2022-11-27T17:17:39.880Z,16.27
2022-11-27T17:20:07.595Z,15.27
2022-11-27T17:22:34.462Z,12.77
2022-11-27T17:25:01.303Z,16.17
2022-11-27T17:27:28.140Z,15.90
2022-11-27T17:29:54.952Z,13.07
2022-11-27T17:32:21.790Z,13.55
2022-11-27T17:34:49.126Z,14.30
2022-11-27T17:37:15.988Z,15.10
2022-11-27T17:39:43.927Z,13.82
2022-11-27T17:42:14.478Z,12.35
2022-11-27T17:44:42.997Z,17.27
2022-11-27T17:47:09.850Z,13.73
2022-11-27T17:49:36.680Z,16.15
2022-11-27T17:52:06.579Z,13.98
2022-11-27T17:54:34.586Z,13.50
2022-11-27T17:57:01.363Z,12.43
2022-11-27T17:59:28.143Z,15.38
2022-11-27T18:01:58.516Z,15.43
2022-11-27T18:04:25.358Z,14.05
2022-11-27T18:06:52.119Z,18.55
2022-11-27T18:09:18.917Z,19.88
2022-11-27T18:11:45.694Z,17.30
2022-11-27T18:14:13.691Z,18.45
2022-11-27T18:16:41.197Z,18.88
2022-11-27T18:19:10.085Z,18.13
2022-11-27T18:21:37.957Z,16.55
2022-11-27T18:27:11.054Z,20.35
2022-11-27T18:29:41.004Z,14.98
2022-11-27T18:32:08.873Z,16.67
2022-11-27T18:34:35.798Z,14.95
2022-11-27T18:37:03.163Z,17.27
2022-11-27T18:39:31.391Z,15.15
2022-11-27T18:41:58.317Z,14.20
2022-11-27T18:44:25.313Z,17.45
2022-11-27T18:46:52.337Z,14.50
2022-11-27T18:49:19.478Z,18.00
2022-11-27T18:51:46.296Z,14.88
2022-11-27T18:54:13.123Z,13.20
2022-11-27T18:56:39.835Z,15.05
2022-11-27T18:59:07.052Z,16.98
2022-11-27T19:01:41.217Z,14.13
2022-11-27T19:04:10.057Z,14.27
2022-11-27T19:06:38.133Z,14.98
2022-11-27T19:09:05.691Z,17.83
2022-11-27T19:11:33.926Z,14.77
2022-11-27T19:14:01.231Z,15.45
2022-11-27T19:16:33.974Z,19.63
2022-11-27T19:19:02.816Z,23.48
2022-11-27T19:21:32.603Z,26.27
2022-11-27T19:24:01.133Z,23.58
2022-11-27T19:26:33.812Z,23.45
2022-11-27T19:29:03.583Z,25.88
2022-11-27T19:31:32.981Z,23.45
2022-11-27T19:34:01.911Z,22.30
2022-11-27T19:36:30.085Z,22.42
2022-11-27T19:38:59.235Z,21.20
2022-11-27T19:41:26.621Z,24.08
2022-11-27T19:43:53.495Z,24.67
2022-11-27T19:46:26.208Z,25.05
2022-11-27T19:49:02.027Z,20.55
2022-11-27T19:51:32.524Z,22.33
2022-11-27T19:54:02.616Z,24.60
2022-11-27T19:56:34.936Z,22.88
2022-11-27T19:59:02.437Z,20.40
2022-11-27T20:01:29.686Z,18.17
2022-11-27T20:03:56.497Z,19.42
2022-11-27T20:06:25.388Z,21.83
2022-11-27T20:08:53.926Z,22.00
2022-11-27T20:11:23.309Z,21.95
2022-11-27T20:13:50.375Z,19.88
2022-11-27T20:18:46.153Z,21.05
2022-11-27T20:21:18.440Z,22.45
2022-11-27T20:23:46.644Z,26.13
2022-11-27T20:26:19.538Z,19.80
2022-11-27T20:28:46.728Z,22.15
2022-11-27T20:31:16.045Z,20.83
2022-11-27T20:33:42.914Z,20.98
2022-11-27T20:36:16.385Z,21.48
2022-11-27T20:38:43.576Z,22.40
2022-11-27T20:41:14.637Z,22.73
2022-11-27T20:43:42.974Z,20.17
2022-11-27T20:46:13.438Z,21.27
2022-11-27T20:48:40.280Z,19.25
2022-11-27T20:51:09.219Z,21.13
2022-11-27T20:53:36.924Z,21.00
2022-11-27T20:56:05.249Z,18.20
2022-11-27T20:58:32.129Z,19.08
2022-11-27T21:01:00.083Z,18.95
2022-11-27T21:03:30.236Z,19.27
2022-11-27T21:05:57.021Z,18.00
2022-11-27T21:08:23.809Z,15.73
2022-11-27T21:10:50.992Z,17.20
2022-11-27T21:13:17.807Z,17.40
2022-11-27T21:15:46.470Z,17.08
2022-11-27T21:18:13.426Z,16.10
2022-11-27T21:20:40.901Z,21.83
2022-11-27T21:23:07.910Z,19.13
2022-11-27T21:25:34.877Z,19.67
2022-11-27T21:28:01.787Z,18.30
2022-11-27T21:30:28.555Z,17.15
2022-11-27T21:32:55.439Z,17.98
2022-11-27T21:35:22.271Z,19.85
2022-11-27T21:37:49.015Z,19.70
2022-11-27T21:40:15.911Z,23.20
2022-11-27T21:42:44.740Z,24.35
2022-11-27T21:45:11.672Z,24.55
2022-11-27T21:47:38.497Z,21.70
2022-11-27T21:50:06.251Z,27.65
2022-11-27T21:52:33.088Z,22.63
2022-11-27T21:54:59.855Z,20.75
2022-11-27T21:57:26.622Z,24.55
2022-11-27T21:59:53.342Z,24.27
2022-11-27T22:02:20.126Z,23.80
2022-11-27T22:04:47.997Z,20.48
2022-11-27T22:07:15.073Z,19.05
2022-11-27T22:09:41.811Z,18.67
2022-11-27T22:12:08.585Z,21.98
2022-11-27T22:14:35.367Z,20.52
2022-11-27T22:17:02.243Z,21.73
2022-11-27T22:19:29.088Z,23.02
2022-11-27T22:21:55.918Z,21.23
2022-11-27T22:24:22.669Z,22.25
2022-11-27T22:26:49.409Z,21.17
2022-11-27T22:29:16.344Z,20.23
2022-11-27T22:31:43.116Z,21.23
2022-11-27T22:34:09.980Z,21.95
2022-11-27T22:36:36.825Z,19.35
2022-11-27T22:39:06.419Z,21.77
2022-11-27T22:41:36.563Z,27.50
2022-11-27T22:44:08.357Z,23.05
2022-11-27T22:46:36.167Z,24.40
2022-11-27T22:49:05.194Z,24.17
2022-11-27T22:51:34.233Z,23.60
2022-11-27T22:54:02.579Z,25.40
2022-11-27T22:56:29.994Z,22.92
2022-11-27T22:59:24.561Z,29.83
2022-11-27T23:01:48.443Z,26.98
2022-11-27T23:04:15.836Z,21.25
2022-11-27T23:06:47.356Z,22.75
2022-11-27T23:09:19.429Z,24.52
2022-11-27T23:11:46.525Z,25.88
2022-11-27T23:16:40.128Z,26.02
2022-11-27T23:19:07.165Z,23.25
2022-11-27T23:21:37.432Z,25.02
2022-11-27T23:24:05.458Z,24.88
2022-11-27T23:26:32.808Z,26.88
2022-11-27T23:28:59.824Z,29.30
2022-11-27T23:31:30.733Z,27.70
2022-11-27T23:34:01.277Z,30.02
2022-11-27T23:36:28.904Z,24.75
2022-11-27T23:38:55.645Z,23.20
2022-11-27T23:41:25.809Z,24.20
2022-11-27T23:43:53.799Z,22.40
2022-11-27T23:46:22.586Z,22.33
2022-11-27T23:48:49.753Z,19.75
2022-11-27T23:53:47.856Z,21.25
2022-11-27T23:56:18.448Z,16.25
2022-11-27T23:58:47.242Z,16.42
